Time,TemperatureF,DewpointF,PressureIn,WindDirection,WindDirectionDegrees,WindSpeedMPH,WindSpeedGustMPH,Humidity,HourlyPrecipIn,Conditions,Clouds,dailyrainin,SoftwareType,DateUTC
2013-02-03 00:00:00,22.7,12.7,29.66,East,89,0.0,4.0,65,0.00,,---,0.00,VWS V14.01,2013-02-03 09:00:00,
2013-02-03 00:05:00,21.5,11.9,29.66,East,89,0.0,0.0,66,0.00,,---,0.00,VWS V14.01,2013-02-03 09:05:00,
2013-02-03 00:10:00,20.5,11.6,29.66,ESE,121,0.0,2.0,68,0.00,,---,0.00,VWS V14.01,2013-02-03 09:10:00,
2013-02-03 00:15:00,20.0,11.5,29.66,ESE,121,0.0,2.0,69,0.00,,---,0.00,VWS V14.01,2013-02-03 09:15:00,
2013-02-03 00:20:00,20.1,12.2,29.66,ESE,121,0.0,2.0,71,0.00,,---,0.00,VWS V14.01,2013-02-03 09:20:00,
2013-02-03 00:25:00,20.4,12.5,29.66,ESE,121,0.0,2.0,71,0.00,,---,0.00,VWS V14.01,2013-02-03 09:25:00,
2013-02-03 00:30:00,20.8,13.2,29.65,ESE,121,2.0,2.0,72,0.00,,---,0.00,VWS V14.01,2013-02-03 09:30:00,
2013-02-03 00:35:00,21.4,13.5,29.65,ESE,121,2.0,4.0,71,0.00,,---,0.00,VWS V14.01,2013-02-03 09:35:00,
2013-02-03 00:40:00,21.7,13.4,29.65,ESE,121,0.0,4.0,70,0.00,,---,0.00,VWS V14.01,2013-02-03 09:40:00,
2013-02-03 00:45:00,21.8,13.5,29.65,ESE,121,0.0,4.0,70,0.00,,---,0.00,VWS V14.01,2013-02-03 09:45:00,
2013-02-03 00:50:00,21.8,13.5,29.65,ESE,121,0.0,4.0,70,0.00,,---,0.00,VWS V14.01,2013-02-03 09:50:00,
2013-02-03 00:55:00,21.7,13.4,29.64,ESE,121,0.0,4.0,70,0.00,,---,0.00,VWS V14.01,2013-02-03 09:55:00,
2013-02-03 01:00:00,21.5,13.2,29.64,ESE,121,1.0,4.0,70,0.00,,---,0.00,VWS V14.01,2013-02-03 10:00:00,
2013-02-03 01:05:00,21.6,13.7,29.64,ESE,107,1.0,4.0,71,0.00,,---,0.00,VWS V14.01,2013-02-03 10:05:00,
2013-02-03 01:10:00,22.0,14.1,29.64,ESE,107,0.0,4.0,71,0.00,,---,0.00,VWS V14.01,2013-02-03 10:10:00,
2013-02-03 01:15:00,22.4,14.1,29.64,ESE,107,1.0,4.0,70,0.00,,---,0.00,VWS V14.01,2013-02-03 10:15:00,
2013-02-03 01:20:00,22.5,13.9,29.64,ESE,107,2.0,4.0,69,0.00,,---,0.00,VWS V14.01,2013-02-03 10:20:00,
2013-02-03 01:25:00,22.5,14.2,29.64,ESE,107,1.0,4.0,70,0.00,,---,0.00,VWS V14.01,2013-02-03 10:25:00,
2013-02-03 01:30:00,22.7,14.4,29.64,ESE,107,0.0,4.0,70,0.00,,---,0.00,VWS V14.01,2013-02-03 10:30:00,
2013-02-03 01:35:00,22.7,14.4,29.63,ESE,107,1.0,2.0,70,0.00,,---,0.00,VWS V14.01,2013-02-03 10:35:00,
2013-02-03 01:40:00,22.7,14.4,29.63,ESE,107,1.0,4.0,70,0.00,,---,0.00,VWS V14.01,2013-02-03 10:40:00,
2013-02-03 01:45:00,22.9,14.9,29.63,ESE,107,0.0,4.0,71,0.00,,---,0.00,VWS V14.01,2013-02-03 10:45:00,
2013-02-03 01:50:00,23.4,15.4,29.63,ESE,107,0.0,4.0,71,0.00,,---,0.00,VWS V14.01,2013-02-03 10:50:00,
2013-02-03 01:55:00,23.8,15.1,29.63,ESE,107,0.0,4.0,69,0.00,,---,0.00,VWS V14.01,2013-02-03 10:55:00,
2013-02-03 02:00:00,23.6,14.6,29.63,ESE,107,0.0,4.0,68,0.00,,---,0.00,VWS V14.01,2013-02-03 11:00:00,
2013-02-03 02:05:00,23.4,14.8,29.62,ESE,107,0.0,0.0,69,0.00,,---,0.00,VWS V14.01,2013-02-03 11:05:00,
2013-02-03 02:10:00,23.4,15.1,29.62,NE,51,3.0,3.0,70,0.00,,---,0.00,VWS V14.01,2013-02-03 11:10:00,
2013-02-03 02:15:00,23.6,14.9,29.62,NE,51,0.0,3.0,69,0.00,,---,0.00,VWS V14.01,2013-02-03 11:15:00,
2013-02-03 02:20:00,23.8,15.5,29.62,NE,51,0.0,3.0,70,0.00,,---,0.00,VWS V14.01,2013-02-03 11:20:00,
2013-02-03 02:25:00,24.1,15.4,29.62,NE,51,0.0,3.0,69,0.00,,---,0.00,VWS V14.01,2013-02-03 11:25:00,
2013-02-03 02:30:00,24.2,15.5,29.62,NE,51,0.0,3.0,69,0.00,,---,0.00,VWS V14.01,2013-02-03 11:30:00,
2013-02-03 02:35:00,24.0,15.3,29.61,NE,51,1.0,2.0,69,0.00,,---,0.00,VWS V14.01,2013-02-03 11:35:00,
2013-02-03 02:40:00,24.1,15.4,29.61,NE,51,0.0,2.0,69,0.00,,---,0.00,VWS V14.01,2013-02-03 11:40:00,
2013-02-03 02:45:00,24.4,15.7,29.60,NE,51,0.0,2.0,69,0.00,,---,0.00,VWS V14.01,2013-02-03 11:45:00,
2013-02-03 02:50:00,24.6,15.9,29.60,NE,51,0.0,2.0,69,0.00,,---,0.00,VWS V14.01,2013-02-03 11:50:00,
2013-02-03 02:55:00,24.7,15.7,29.60,NE,51,0.0,2.0,68,0.00,,---,0.00,VWS V14.01,2013-02-03 11:55:00,
2013-02-03 03:00:00,24.4,15.4,29.60,NE,51,0.0,2.0,68,0.00,,---,0.00,VWS V14.01,2013-02-03 12:00:00,
2013-02-03 03:05:00,23.8,14.8,29.60,NE,51,0.0,0.0,68,0.00,,---,0.00,VWS V14.01,2013-02-03 12:05:00,
2013-02-03 03:10:00,23.0,14.7,29.60,NE,51,0.0,0.0,70,0.00,,---,0.00,VWS V14.01,2013-02-03 12:10:00,
2013-02-03 03:15:00,22.5,14.5,29.59,NE,51,0.0,0.0,71,0.00,,---,0.00,VWS V14.01,2013-02-03 12:15:00,
2013-02-03 03:20:00,22.5,14.9,29.59,NE,51,0.0,0.0,72,0.00,,---,0.00,VWS V14.01,2013-02-03 12:20:00,
2013-02-03 03:25:00,23.0,15.3,29.59,NE,51,0.0,0.0,72,0.00,,---,0.00,VWS V14.01,2013-02-03 12:25:00,
2013-02-03 03:30:00,23.3,15.0,29.59,NE,51,0.0,1.0,70,0.00,,---,0.00,VWS V14.01,2013-02-03 12:30:00,
2013-02-03 03:35:00,23.3,15.0,29.58,NE,51,0.0,1.0,70,0.00,,---,0.00,VWS V14.01,2013-02-03 12:35:00,
2013-02-03 03:40:00,23.2,14.6,29.58,NE,51,0.0,1.0,69,0.00,,---,0.00,VWS V14.01,2013-02-03 12:40:00,
2013-02-03 03:45:00,22.9,14.6,29.58,NE,51,0.0,2.0,70,0.00,,---,0.00,VWS V14.01,2013-02-03 12:45:00,
2013-02-03 03:50:00,22.5,14.2,29.58,NE,51,0.0,2.0,70,0.00,,---,0.00,VWS V14.01,2013-02-03 12:50:00,
2013-02-03 03:55:00,22.4,14.1,29.58,NE,51,0.0,2.0,70,0.00,,---,0.00,VWS V14.01,2013-02-03 12:55:00,
2013-02-03 04:00:00,22.1,13.5,29.58,NE,51,0.0,2.0,69,0.00,,---,0.00,VWS V14.01,2013-02-03 13:00:00,
2013-02-03 04:05:00,21.8,13.2,29.58,NE,51,0.0,0.0,69,0.00,,---,0.00,VWS V14.01,2013-02-03 13:05:00,
2013-02-03 04:10:00,21.3,13.1,29.58,NE,51,0.0,0.0,70,0.00,,---,0.00,VWS V14.01,2013-02-03 13:10:00,
2013-02-03 04:15:00,21.0,13.1,29.58,NE,51,0.0,0.0,71,0.00,,---,0.00,VWS V14.01,2013-02-03 13:15:00,
2013-02-03 04:20:00,20.9,13.3,29.57,NE,51,0.0,0.0,72,0.00,,---,0.00,VWS V14.01,2013-02-03 13:20:00,
2013-02-03 04:25:00,21.2,14.5,29.57,NE,51,0.0,0.0,75,0.00,,---,0.00,VWS V14.01,2013-02-03 13:25:00,
2013-02-03 04:30:00,21.6,14.6,29.57,NE,51,0.0,0.0,74,0.00,,---,0.00,VWS V14.01,2013-02-03 13:30:00,
2013-02-03 04:35:00,21.9,14.3,29.57,NE,51,1.0,1.0,72,0.00,,---,0.00,VWS V14.01,2013-02-03 13:35:00,
2013-02-03 04:40:00,22.0,14.4,29.56,NE,51,0.0,1.0,72,0.00,,---,0.00,VWS V14.01,2013-02-03 13:40:00,
2013-02-03 04:45:00,22.2,14.6,29.56,NE,51,0.0,1.0,72,0.00,,---,0.00,VWS V14.01,2013-02-03 13:45:00,
2013-02-03 04:50:00,22.4,14.8,29.56,NE,51,0.0,1.0,72,0.00,,---,0.00,VWS V14.01,2013-02-03 13:50:00,
2013-02-03 04:55:00,22.3,14.7,29.56,NE,51,0.0,1.0,72,0.00,,---,0.00,VWS V14.01,2013-02-03 13:55:00,
2013-02-03 05:00:00,22.1,14.1,29.56,NE,51,0.0,1.0,71,0.00,,---,0.00,VWS V14.01,2013-02-03 14:00:00,
2013-02-03 05:05:00,21.7,13.8,29.55,NE,51,0.0,1.0,71,0.00,,---,0.00,VWS V14.01,2013-02-03 14:05:00,
2013-02-03 05:10:00,21.3,13.4,29.55,NE,51,0.0,1.0,71,0.00,,---,0.00,VWS V14.01,2013-02-03 14:10:00,
2013-02-03 05:15:00,20.9,13.0,29.55,NE,51,0.0,1.0,71,0.00,,---,0.00,VWS V14.01,2013-02-03 14:15:00,
2013-02-03 05:20:00,20.7,13.4,29.55,NE,51,0.0,1.0,73,0.00,,---,0.00,VWS V14.01,2013-02-03 14:20:00,
2013-02-03 05:25:00,20.7,14.0,29.54,NE,51,0.0,1.0,75,0.00,,---,0.00,VWS V14.01,2013-02-03 14:25:00,
2013-02-03 05:30:00,20.9,14.2,29.54,NE,51,0.0,1.0,75,0.00,,---,0.00,VWS V14.01,2013-02-03 14:30:00,
2013-02-03 05:35:00,21.1,14.1,29.53,NE,51,0.0,0.0,74,0.00,,---,0.00,VWS V14.01,2013-02-03 14:35:00,
2013-02-03 05:40:00,21.5,14.8,29.53,NE,51,2.0,2.0,75,0.00,,---,0.00,VWS V14.01,2013-02-03 14:40:00,
2013-02-03 05:45:00,22.3,15.3,29.53,NE,51,0.0,2.0,74,0.00,,---,0.00,VWS V14.01,2013-02-03 14:45:00,
2013-02-03 05:50:00,22.7,15.4,29.53,NE,51,0.0,3.0,73,0.00,,---,0.00,VWS V14.01,2013-02-03 14:50:00,
2013-02-03 05:55:00,23.1,15.8,29.53,NE,51,0.0,3.0,73,0.00,,---,0.00,VWS V14.01,2013-02-03 14:55:00,
2013-02-03 06:00:00,23.2,15.5,29.53,NE,51,0.0,3.0,72,0.00,,---,0.00,VWS V14.01,2013-02-03 15:00:00,
2013-02-03 06:05:00,23.1,15.1,29.52,NE,51,0.0,0.0,71,0.00,,---,0.00,VWS V14.01,2013-02-03 15:05:00,
2013-02-03 06:10:00,23.0,15.3,29.52,NE,51,0.0,0.0,72,0.00,,---,0.00,VWS V14.01,2013-02-03 15:10:00,
2013-02-03 06:15:00,22.8,14.8,29.52,NE,51,0.0,0.0,71,0.00,,---,0.00,VWS V14.01,2013-02-03 15:15:00,
2013-02-03 06:20:00,22.8,14.8,29.52,NE,51,0.0,0.0,71,0.00,,---,0.00,VWS V14.01,2013-02-03 15:20:00,
2013-02-03 06:25:00,22.8,14.8,29.52,NE,51,0.0,0.0,71,0.00,,---,0.00,VWS V14.01,2013-02-03 15:25:00,
2013-02-03 06:30:00,22.8,14.8,29.52,NE,51,0.0,0.0,71,0.00,,---,0.00,VWS V14.01,2013-02-03 15:30:00,
2013-02-03 06:35:00,22.8,14.8,29.52,NE,51,0.0,0.0,71,0.00,,---,0.00,VWS V14.01,2013-02-03 15:35:00,
2013-02-03 06:40:00,22.8,14.8,29.52,NE,51,0.0,0.0,71,0.00,,---,0.00,VWS V14.01,2013-02-03 15:40:00,
2013-02-03 06:45:00,22.8,14.8,29.52,NE,51,0.0,0.0,71,0.00,,---,0.00,VWS V14.01,2013-02-03 15:45:00,
2013-02-03 06:50:00,22.8,14.8,29.52,NE,51,0.0,0.0,71,0.00,,---,0.00,VWS V14.01,2013-02-03 15:50:00,
2013-02-03 06:55:00,22.8,14.8,29.51,NE,51,0.0,0.0,71,0.00,,---,0.00,VWS V14.01,2013-02-03 15:55:00,
2013-02-03 07:00:00,22.8,14.8,29.51,NE,51,0.0,0.0,71,0.00,,---,0.00,VWS V14.01,2013-02-03 16:00:00,
2013-02-03 07:05:00,22.8,14.8,29.51,NE,51,0.0,0.0,71,0.00,,---,0.00,VWS V14.01,2013-02-03 16:05:00,
2013-02-03 07:09:00,22.8,14.8,29.50,NE,51,0.0,0.0,71,0.00,,---,0.00,VWS V14.01,2013-02-03 16:09:00,
2013-02-03 07:14:00,22.8,14.8,29.50,NE,51,0.0,0.0,71,0.00,,---,0.00,VWS V14.01,2013-02-03 16:14:00,
2013-02-03 07:19:00,22.8,14.8,29.50,NE,51,0.0,0.0,71,0.00,,---,0.00,VWS V14.01,2013-02-03 16:19:00,
2013-02-03 07:24:00,22.8,14.8,29.50,NE,51,0.0,0.0,71,0.00,,---,0.00,VWS V14.01,2013-02-03 16:24:00,
2013-02-03 07:29:00,22.8,14.8,29.50,NE,51,0.0,0.0,71,0.00,,---,0.00,VWS V14.01,2013-02-03 16:29:00,
2013-02-03 07:30:00,22.8,14.8,29.50,NE,51,0.0,0.0,71,0.00,,---,0.00,VWS V14.01,2013-02-03 16:30:00,
2013-02-03 07:34:00,22.8,14.8,29.50,NE,51,0.0,0.0,71,0.00,,---,0.00,VWS V14.01,2013-02-03 16:34:00,
2013-02-03 07:39:00,22.8,14.8,29.50,NE,51,0.0,0.0,71,0.00,,---,0.00,VWS V14.01,2013-02-03 16:39:00,
2013-02-03 07:44:00,22.8,14.8,29.50,NE,51,0.0,0.0,71,0.00,,---,0.00,VWS V14.01,2013-02-03 16:44:00,
2013-02-03 07:49:00,22.8,14.8,29.50,NE,51,0.0,0.0,71,0.00,,---,0.00,VWS V14.01,2013-02-03 16:49:00,
2013-02-03 07:54:00,22.8,14.8,29.50,NE,51,0.0,0.0,71,0.00,,---,0.00,VWS V14.01,2013-02-03 16:54:00,
2013-02-03 07:59:00,22.8,14.8,29.50,NE,51,0.0,0.0,71,0.00,,---,0.00,VWS V14.01,2013-02-03 16:59:00,
2013-02-03 08:00:00,22.8,14.8,29.50,NE,51,0.0,0.0,71,0.00,,---,0.00,VWS V14.01,2013-02-03 17:00:00,
2013-02-03 08:04:00,22.8,14.8,29.50,NE,51,0.0,0.0,71,0.00,,---,0.00,VWS V14.01,2013-02-03 17:04:00,
2013-02-03 08:09:00,22.8,14.8,29.49,NE,51,0.0,0.0,71,0.00,,---,0.00,VWS V14.01,2013-02-03 17:09:00,
2013-02-03 08:14:00,22.8,14.8,29.49,NE,51,0.0,0.0,71,0.00,,---,0.00,VWS V14.01,2013-02-03 17:14:00,
2013-02-03 08:19:00,22.8,14.8,29.50,NE,51,0.0,0.0,71,0.00,,---,0.00,VWS V14.01,2013-02-03 17:19:00,
2013-02-03 08:24:00,22.8,14.8,29.50,NE,51,0.0,0.0,71,0.00,,---,0.00,VWS V14.01,2013-02-03 17:24:00,
2013-02-03 08:29:00,22.8,14.8,29.50,NE,51,0.0,0.0,71,0.00,,---,0.00,VWS V14.01,2013-02-03 17:29:00,
2013-02-03 08:30:00,22.8,14.8,29.50,NE,51,0.0,0.0,71,0.00,,---,0.00,VWS V14.01,2013-02-03 17:30:00,
2013-02-03 08:34:00,22.8,14.8,29.50,NE,51,0.0,0.0,71,0.00,,---,0.00,VWS V14.01,2013-02-03 17:34:00,
2013-02-03 08:39:00,22.8,14.8,29.50,NE,51,0.0,0.0,71,0.00,,---,0.00,VWS V14.01,2013-02-03 17:39:00,
2013-02-03 08:44:00,22.8,14.8,29.49,NE,51,0.0,0.0,71,0.00,,---,0.00,VWS V14.01,2013-02-03 17:44:00,
2013-02-03 08:49:00,22.8,14.8,29.49,NE,51,0.0,0.0,71,0.00,,---,0.00,VWS V14.01,2013-02-03 17:49:00,
2013-02-03 08:54:00,22.8,14.8,29.49,NE,51,0.0,0.0,71,0.00,,---,0.00,VWS V14.01,2013-02-03 17:54:00,
2013-02-03 08:59:00,22.8,14.8,29.49,NE,51,0.0,0.0,71,0.00,,---,0.00,VWS V14.01,2013-02-03 17:59:00,
2013-02-03 09:00:00,22.8,14.8,29.49,NE,51,0.0,0.0,71,0.00,,---,0.00,VWS V14.01,2013-02-03 18:00:00,
2013-02-03 09:04:00,22.8,14.8,29.49,NE,51,0.0,0.0,71,0.00,,---,0.00,VWS V14.01,2013-02-03 18:04:00,
2013-02-03 09:09:00,22.8,14.8,29.49,NE,51,0.0,0.0,71,0.00,,---,0.00,VWS V14.01,2013-02-03 18:09:00,
2013-02-03 09:14:00,22.8,14.8,29.49,NE,51,0.0,0.0,71,0.00,,---,0.00,VWS V14.01,2013-02-03 18:14:00,
2013-02-03 09:19:00,22.8,14.8,29.49,NE,51,0.0,0.0,71,0.00,,---,0.00,VWS V14.01,2013-02-03 18:19:00,
2013-02-03 09:24:00,22.8,14.8,29.49,NE,51,0.0,0.0,71,0.00,,---,0.00,VWS V14.01,2013-02-03 18:24:00,
2013-02-03 09:29:00,22.8,14.8,29.49,NE,51,0.0,0.0,71,0.00,,---,0.00,VWS V14.01,2013-02-03 18:29:00,
2013-02-03 09:30:00,22.8,14.8,29.49,NE,51,0.0,0.0,71,0.00,,---,0.00,VWS V14.01,2013-02-03 18:30:00,
2013-02-03 09:34:00,22.8,14.8,29.48,NE,51,0.0,0.0,71,0.00,,---,0.00,VWS V14.01,2013-02-03 18:34:00,
2013-02-03 09:39:00,22.8,14.8,29.48,NE,51,0.0,0.0,71,0.00,,---,0.00,VWS V14.01,2013-02-03 18:39:00,
2013-02-03 09:44:00,22.8,14.8,29.48,NE,51,0.0,0.0,71,0.00,,---,0.00,VWS V14.01,2013-02-03 18:44:00,
2013-02-03 09:49:00,22.8,14.8,29.48,NE,51,0.0,0.0,71,0.00,,---,0.00,VWS V14.01,2013-02-03 18:49:00,
2013-02-03 09:54:00,22.8,14.8,29.48,NE,51,0.0,0.0,71,0.00,,---,0.00,VWS V14.01,2013-02-03 18:54:00,
2013-02-03 09:59:00,22.8,14.8,29.47,NE,51,0.0,0.0,71,0.00,,---,0.00,VWS V14.01,2013-02-03 18:59:00,
2013-02-03 10:00:00,22.8,14.8,29.47,NE,51,0.0,0.0,71,0.00,,---,0.00,VWS V14.01,2013-02-03 19:00:00,
2013-02-03 10:04:00,22.8,14.8,29.47,NE,51,0.0,0.0,71,0.00,,---,0.00,VWS V14.01,2013-02-03 19:04:00,
2013-02-03 10:09:00,22.8,14.8,29.47,NE,51,0.0,0.0,71,0.00,,---,0.00,VWS V14.01,2013-02-03 19:09:00,
2013-02-03 10:14:00,22.8,14.8,29.47,NE,51,0.0,0.0,71,0.00,,---,0.00,VWS V14.01,2013-02-03 19:14:00,
2013-02-03 10:19:00,21.7,15.0,29.47,NNW,329,0.0,0.0,75,0.00,,---,0.00,VWS V14.01,2013-02-03 19:19:00,
2013-02-03 10:24:00,22.0,15.0,29.47,NNW,329,0.0,0.0,74,0.00,,---,0.00,VWS V14.01,2013-02-03 19:24:00,
2013-02-03 10:29:00,22.1,15.1,29.47,NNW,329,0.0,0.0,74,0.00,,---,0.00,VWS V14.01,2013-02-03 19:29:00,
2013-02-03 10:30:00,22.1,15.1,29.47,NNW,329,0.0,0.0,74,0.00,,---,0.00,VWS V14.01,2013-02-03 19:30:00,
2013-02-03 10:34:00,22.2,14.6,29.47,NNW,329,0.0,0.0,72,0.00,,---,0.00,VWS V14.01,2013-02-03 19:34:00,
2013-02-03 10:39:00,22.2,14.6,29.47,NNW,329,0.0,0.0,72,0.00,,---,0.00,VWS V14.01,2013-02-03 19:39:00,
2013-02-03 10:44:00,22.5,15.5,29.47,NNW,329,0.0,0.0,74,0.00,,---,0.00,VWS V14.01,2013-02-03 19:44:00,
2013-02-03 10:49:00,22.9,15.6,29.47,NNW,329,0.0,0.0,73,0.00,,---,0.00,VWS V14.01,2013-02-03 19:49:00,
2013-02-03 10:54:00,23.2,15.5,29.47,NNW,329,0.0,0.0,72,0.00,,---,0.00,VWS V14.01,2013-02-03 19:54:00,
2013-02-03 10:59:00,23.5,15.8,29.47,NNW,329,0.0,0.0,72,0.00,,---,0.00,VWS V14.01,2013-02-03 19:59:00,
2013-02-03 11:00:00,23.6,15.6,29.47,NNW,329,0.0,0.0,71,0.00,,---,0.00,VWS V14.01,2013-02-03 20:00:00,
2013-02-03 11:04:00,23.8,15.8,29.47,NNW,329,0.0,0.0,71,0.00,,---,0.00,VWS V14.01,2013-02-03 20:04:00,
2013-02-03 11:09:00,23.9,15.6,29.47,NNW,329,0.0,0.0,70,0.00,,---,0.00,VWS V14.01,2013-02-03 20:09:00,
2013-02-03 11:14:00,23.7,15.4,29.47,NNW,329,0.0,0.0,70,0.00,,---,0.00,VWS V14.01,2013-02-03 20:14:00,
2013-02-03 11:19:00,23.5,15.2,29.47,NNW,329,0.0,0.0,70,0.00,,---,0.00,VWS V14.01,2013-02-03 20:19:00,
2013-02-03 11:24:00,23.3,15.0,29.47,NNW,329,0.0,0.0,70,0.00,,---,0.00,VWS V14.01,2013-02-03 20:24:00,
2013-02-03 11:29:00,23.2,14.9,29.47,NNW,329,0.0,0.0,70,0.00,,---,0.00,VWS V14.01,2013-02-03 20:29:00,
2013-02-03 11:30:00,23.1,14.8,29.47,NNW,329,0.0,0.0,70,0.00,,---,0.00,VWS V14.01,2013-02-03 20:30:00,
2013-02-03 11:34:00,23.1,14.8,29.47,NNW,329,0.0,0.0,70,0.00,,---,0.00,VWS V14.01,2013-02-03 20:34:00,
2013-02-03 11:39:00,23.0,16.9,29.47,NNW,329,0.0,0.0,77,0.00,,---,0.00,VWS V14.01,2013-02-03 20:39:00,
2013-02-03 11:44:00,23.0,15.3,29.47,NNW,329,0.0,0.0,72,0.00,,---,0.00,VWS V14.01,2013-02-03 20:44:00,
2013-02-03 11:49:00,23.0,15.0,29.47,NNW,329,0.0,0.0,71,0.00,,---,0.00,VWS V14.01,2013-02-03 20:49:00,
2013-02-03 11:54:00,23.1,15.4,29.47,NNW,329,0.0,0.0,72,0.00,,---,0.00,VWS V14.01,2013-02-03 20:54:00,
2013-02-03 11:59:00,23.4,15.7,29.46,NNW,329,0.0,0.0,72,0.00,,---,0.00,VWS V14.01,2013-02-03 20:59:00,
2013-02-03 12:00:00,23.6,15.9,29.47,NNW,329,0.0,0.0,72,0.00,,---,0.00,VWS V14.01,2013-02-03 21:00:00,
2013-02-03 12:04:00,23.8,15.8,29.47,NNW,329,0.0,0.0,71,0.00,,---,0.00,VWS V14.01,2013-02-03 21:04:00,
2013-02-03 12:09:00,24.0,16.0,29.47,NNW,329,0.0,0.0,71,0.00,,---,0.00,VWS V14.01,2013-02-03 21:09:00,
2013-02-03 12:14:00,24.1,15.8,29.47,NNW,329,0.0,0.0,70,0.00,,---,0.00,VWS V14.01,2013-02-03 21:14:00,
2013-02-03 12:19:00,24.0,15.6,29.47,NNW,329,1.0,2.0,70,0.00,,---,0.00,VWS V14.01,2013-02-03 21:19:00,
2013-02-03 12:24:00,23.7,15.4,29.47,NNW,329,1.0,3.0,70,0.00,,---,0.00,VWS V14.01,2013-02-03 21:24:00,
2013-02-03 12:29:00,23.4,15.4,29.46,NNW,329,2.0,4.0,71,0.00,,---,0.00,VWS V14.01,2013-02-03 21:29:00,
2013-02-03 12:30:00,23.3,15.3,29.47,NNW,329,1.0,4.0,71,0.00,,---,0.00,VWS V14.01,2013-02-03 21:30:00,
2013-02-03 12:34:00,23.2,15.2,29.46,NNW,329,2.0,3.0,71,0.00,,---,0.00,VWS V14.01,2013-02-03 21:34:00,
2013-02-03 12:39:00,23.2,15.5,29.46,NNW,329,2.0,3.0,72,0.00,,---,0.00,VWS V14.01,2013-02-03 21:39:00,
2013-02-03 12:44:00,23.3,15.6,29.46,NNW,329,3.0,3.0,72,0.00,,---,0.00,VWS V14.01,2013-02-03 21:44:00,
2013-02-03 12:49:00,23.2,15.2,29.46,NNW,336,3.0,4.0,71,0.00,,---,0.00,VWS V14.01,2013-02-03 21:49:00,
2013-02-03 12:54:00,23.1,15.4,29.46,NNW,340,2.0,5.0,72,0.00,,---,0.00,VWS V14.01,2013-02-03 21:54:00,
2013-02-03 12:59:00,23.1,15.4,29.46,North,355,1.0,5.0,72,0.00,,---,0.00,VWS V14.01,2013-02-03 21:59:00,
2013-02-03 13:00:00,23.2,15.5,29.46,North,355,3.0,5.0,72,0.00,,---,0.00,VWS V14.01,2013-02-03 22:00:00,
2013-02-03 13:04:00,23.3,15.6,29.46,NNW,337,3.0,4.0,72,0.00,,---,0.00,VWS V14.01,2013-02-03 22:04:00,
2013-02-03 13:09:00,23.3,15.6,29.46,NNW,337,1.0,4.0,72,0.00,,---,0.00,VWS V14.01,2013-02-03 22:09:00,
2013-02-03 13:14:00,23.2,15.5,29.46,NNW,336,1.0,4.0,72,0.00,,---,0.00,VWS V14.01,2013-02-03 22:14:00,
2013-02-03 13:19:00,23.1,15.4,29.46,NNW,336,2.0,4.0,72,0.00,,---,0.00,VWS V14.01,2013-02-03 22:19:00,
2013-02-03 13:24:00,23.2,15.5,29.46,NNW,336,2.0,4.0,72,0.00,,---,0.00,VWS V14.01,2013-02-03 22:24:00,
2013-02-03 13:29:00,23.1,15.4,29.46,NNW,335,2.0,4.0,72,0.00,,---,0.00,VWS V14.01,2013-02-03 22:29:00,
2013-02-03 13:30:00,23.1,15.8,29.46,NNW,342,2.0,4.0,73,0.00,,---,0.00,VWS V14.01,2013-02-03 22:30:00,
2013-02-03 13:34:00,22.9,15.6,29.45,NNW,342,3.0,3.0,73,0.00,,---,0.00,VWS V14.01,2013-02-03 22:34:00,
2013-02-03 13:39:00,22.9,15.6,29.46,NNW,346,3.0,4.0,73,0.00,,---,0.00,VWS V14.01,2013-02-03 22:39:00,
2013-02-03 13:44:00,22.9,15.6,29.45,NNW,331,5.0,5.0,73,0.00,,---,0.00,VWS V14.01,2013-02-03 22:44:00,
2013-02-03 13:49:00,23.0,15.6,29.45,North,355,2.0,5.0,73,0.00,,---,0.00,VWS V14.01,2013-02-03 22:49:00,
2013-02-03 13:54:00,23.0,15.6,29.45,North,360,2.0,5.0,73,0.00,,---,0.00,VWS V14.01,2013-02-03 22:54:00,
2013-02-03 13:59:00,23.2,15.8,29.45,North,360,2.0,5.0,73,0.00,,---,0.00,VWS V14.01,2013-02-03 22:59:00,
2013-02-03 14:00:00,23.3,15.9,29.45,North,360,1.0,5.0,73,0.00,,---,0.00,VWS V14.01,2013-02-03 23:00:00,
2013-02-03 14:04:00,23.3,15.9,29.45,North,360,1.0,3.0,73,0.00,,---,0.00,VWS V14.01,2013-02-03 23:04:00,
2013-02-03 14:09:00,23.4,16.0,29.45,North,360,2.0,3.0,73,0.00,,---,0.00,VWS V14.01,2013-02-03 23:09:00,
2013-02-03 14:14:00,23.5,16.1,29.45,North,360,0.0,3.0,73,0.00,,---,0.00,VWS V14.01,2013-02-03 23:14:00,
2013-02-03 14:19:00,23.5,16.1,29.45,North,360,0.0,3.0,73,0.00,,---,0.00,VWS V14.01,2013-02-03 23:19:00,
2013-02-03 14:24:00,23.5,15.8,29.45,North,360,0.0,3.0,72,0.00,,---,0.00,VWS V14.01,2013-02-03 23:24:00,
2013-02-03 14:29:00,23.6,15.9,29.45,North,360,0.0,3.0,72,0.00,,---,0.00,VWS V14.01,2013-02-03 23:29:00,
2013-02-03 14:30:00,23.7,16.0,29.45,North,360,0.0,3.0,72,0.00,,---,0.00,VWS V14.01,2013-02-03 23:30:00,
2013-02-03 14:34:00,23.8,16.1,29.45,North,360,0.0,1.0,72,0.00,,---,0.00,VWS V14.01,2013-02-03 23:34:00,
2013-02-03 14:39:00,24.1,16.4,29.45,North,360,0.0,1.0,72,0.00,,---,0.00,VWS V14.01,2013-02-03 23:39:00,
2013-02-03 14:44:00,24.4,16.4,29.45,North,360,0.0,1.0,71,0.00,,---,0.00,VWS V14.01,2013-02-03 23:44:00,
2013-02-03 14:49:00,24.0,15.0,29.45,North,360,1.0,1.0,68,0.00,,---,0.00,VWS V14.01,2013-02-03 23:49:00,
2013-02-03 14:54:00,22.9,14.3,29.45,North,360,0.0,1.0,69,0.00,,---,0.00,VWS V14.01,2013-02-03 23:54:00,
2013-02-03 14:59:00,21.9,13.3,29.46,North,360,1.0,1.0,69,0.00,,---,0.00,VWS V14.01,2013-02-03 23:59:00,
2013-02-03 15:00:00,21.4,13.1,29.45,North,360,0.0,2.0,70,0.00,,---,0.00,VWS V14.01,2013-02-04 00:00:00,
2013-02-03 15:04:00,21.1,13.2,29.45,North,360,0.0,1.0,71,0.00,,---,0.00,VWS V14.01,2013-02-04 00:04:00,
2013-02-03 15:09:00,20.4,12.8,29.45,North,360,0.0,1.0,72,0.00,,---,0.00,VWS V14.01,2013-02-04 00:09:00,
2013-02-03 15:14:00,19.9,13.0,29.46,North,360,0.0,1.0,74,0.00,,---,0.00,VWS V14.01,2013-02-04 00:14:00,
2013-02-03 15:19:00,19.5,12.9,29.45,North,360,0.0,1.0,75,0.00,,---,0.00,VWS V14.01,2013-02-04 00:19:00,
2013-02-03 15:24:00,19.5,13.5,29.45,North,360,0.0,2.0,77,0.00,,---,0.00,VWS V14.01,2013-02-04 00:24:00,
2013-02-03 15:29:00,19.8,14.1,29.45,North,360,0.0,2.0,78,0.00,,---,0.00,VWS V14.01,2013-02-04 00:29:00,
2013-02-03 15:30:00,20.0,14.0,29.45,North,360,0.0,2.0,77,0.00,,---,0.00,VWS V14.01,2013-02-04 00:30:00,
2013-02-03 15:34:00,20.1,14.1,29.45,North,360,0.0,0.0,77,0.00,,---,0.00,VWS V14.01,2013-02-04 00:34:00,
2013-02-03 15:39:00,20.3,13.7,29.45,North,360,0.0,1.0,75,0.00,,---,0.00,VWS V14.01,2013-02-04 00:39:00,
2013-02-03 15:44:00,20.2,13.6,29.45,North,360,0.0,1.0,75,0.00,,---,0.00,VWS V14.01,2013-02-04 00:44:00,
2013-02-03 15:49:00,20.0,13.4,29.45,North,360,0.0,1.0,75,0.00,,---,0.00,VWS V14.01,2013-02-04 00:49:00,
2013-02-03 15:54:00,20.0,13.7,29.45,North,360,0.0,1.0,76,0.00,,---,0.00,VWS V14.01,2013-02-04 00:54:00,
2013-02-03 15:59:00,20.0,14.0,29.45,North,360,0.0,1.0,77,0.00,,---,0.00,VWS V14.01,2013-02-04 00:59:00,
2013-02-03 16:00:00,20.0,14.3,29.45,North,360,1.0,1.0,78,0.00,,---,0.00,VWS V14.01,2013-02-04 01:00:00,
2013-02-03 16:03:00,20.2,14.2,29.46,North,360,0.0,2.0,77,0.00,,---,0.00,VWS V14.01,2013-02-04 01:03:00,
2013-02-03 16:08:00,20.3,14.3,29.45,North,360,0.0,2.0,77,0.00,,---,0.00,VWS V14.01,2013-02-04 01:08:00,
2013-02-03 16:13:00,20.6,14.8,29.46,North,360,1.0,2.0,78,0.00,,---,0.00,VWS V14.01,2013-02-04 01:13:00,
2013-02-03 16:18:00,21.2,15.7,29.45,North,360,0.0,2.0,79,0.00,,---,0.00,VWS V14.01,2013-02-04 01:18:00,
2013-02-03 16:23:00,21.8,15.7,29.46,North,360,0.0,2.0,77,0.00,,---,0.00,VWS V14.01,2013-02-04 01:23:00,
2013-02-03 16:28:00,21.4,14.1,29.46,North,360,0.0,2.0,73,0.00,,---,0.00,VWS V14.01,2013-02-04 01:28:00,
2013-02-03 16:30:00,21.1,14.1,29.46,North,360,0.0,2.0,74,0.00,,---,0.00,VWS V14.01,2013-02-04 01:30:00,
2013-02-03 16:33:00,20.9,13.9,29.46,North,360,0.0,0.0,74,0.00,,---,0.00,VWS V14.01,2013-02-04 01:33:00,
2013-02-03 16:38:00,20.5,13.5,29.46,North,360,0.0,1.0,74,0.00,,---,0.00,VWS V14.01,2013-02-04 01:38:00,
2013-02-03 16:43:00,20.4,13.8,29.46,North,360,0.0,1.0,75,0.00,,---,0.00,VWS V14.01,2013-02-04 01:43:00,
2013-02-03 16:48:00,20.2,13.6,29.46,North,360,0.0,1.0,75,0.00,,---,0.00,VWS V14.01,2013-02-04 01:48:00,
2013-02-03 16:53:00,19.9,13.3,29.47,North,360,0.0,1.0,75,0.00,,---,0.00,VWS V14.01,2013-02-04 01:53:00,
2013-02-03 16:58:00,19.7,13.4,29.46,North,360,0.0,1.0,76,0.00,,---,0.00,VWS V14.01,2013-02-04 01:58:00,
2013-02-03 17:00:00,19.5,13.2,29.47,North,360,0.0,1.0,76,0.00,,---,0.00,VWS V14.01,2013-02-04 02:00:00,
2013-02-03 17:03:00,19.5,13.2,29.47,North,360,0.0,0.0,76,0.00,,---,0.00,VWS V14.01,2013-02-04 02:03:00,
2013-02-03 17:08:00,19.4,13.1,29.47,North,360,0.0,1.0,76,0.00,,---,0.00,VWS V14.01,2013-02-04 02:08:00,
2013-02-03 17:18:00,19.1,13.1,29.47,North,360,0.0,0.0,77,0.00,,---,0.00,VWS V14.01,2013-02-04 02:18:00,
2013-02-03 17:23:00,19.1,14.0,29.47,North,360,0.0,0.0,80,0.00,,---,0.00,VWS V14.01,2013-02-04 02:23:00,
2013-02-03 17:28:00,19.3,13.6,29.47,North,360,0.0,1.0,78,0.00,,---,0.00,VWS V14.01,2013-02-04 02:28:00,
2013-02-03 17:33:00,19.2,13.2,29.47,North,360,0.0,0.0,77,0.00,,---,0.00,VWS V14.01,2013-02-04 02:33:00,
2013-02-03 17:38:00,19.1,13.1,29.47,North,360,0.0,0.0,77,0.00,,---,0.00,VWS V14.01,2013-02-04 02:38:00,
2013-02-03 17:43:00,19.1,13.1,29.47,North,360,0.0,1.0,77,0.00,,---,0.00,VWS V14.01,2013-02-04 02:43:00,
2013-02-03 17:48:00,19.0,13.0,29.47,North,360,1.0,1.0,77,0.00,,---,0.00,VWS V14.01,2013-02-04 02:48:00,
2013-02-03 17:53:00,18.9,13.5,29.47,North,360,0.0,1.0,79,0.00,,---,0.00,VWS V14.01,2013-02-04 02:53:00,
2013-02-03 17:58:00,19.0,13.3,29.48,North,360,0.0,1.0,78,0.00,,---,0.00,VWS V14.01,2013-02-04 02:58:00,
2013-02-03 18:03:00,18.7,13.0,29.48,North,360,0.0,1.0,78,0.00,,---,0.00,VWS V14.01,2013-02-04 03:03:00,
2013-02-03 18:08:00,18.3,12.6,29.48,North,360,0.0,1.0,78,0.00,,---,0.00,VWS V14.01,2013-02-04 03:08:00,
2013-02-03 18:13:00,18.0,12.3,29.48,North,360,0.0,1.0,78,0.00,,---,0.00,VWS V14.01,2013-02-04 03:13:00,
2013-02-03 18:18:00,17.8,12.4,29.48,North,360,0.0,1.0,79,0.00,,---,0.00,VWS V14.01,2013-02-04 03:18:00,
2013-02-03 18:23:00,17.5,12.1,29.48,North,360,0.0,1.0,79,0.00,,---,0.00,VWS V14.01,2013-02-04 03:23:00,
2013-02-03 18:28:00,17.5,12.4,29.48,North,360,0.0,1.0,80,0.00,,---,0.00,VWS V14.01,2013-02-04 03:28:00,
2013-02-03 18:33:00,17.3,12.2,29.48,North,360,0.0,0.0,80,0.00,,---,0.00,VWS V14.01,2013-02-04 03:33:00,
2013-02-03 18:38:00,17.3,12.2,29.49,North,360,0.0,0.0,80,0.00,,---,0.00,VWS V14.01,2013-02-04 03:38:00,
2013-02-03 18:43:00,17.0,11.9,29.49,North,360,0.0,0.0,80,0.00,,---,0.00,VWS V14.01,2013-02-04 03:43:00,
2013-02-03 18:48:00,16.7,11.6,29.49,North,360,0.0,0.0,80,0.00,,---,0.00,VWS V14.01,2013-02-04 03:48:00,
2013-02-03 18:53:00,16.4,11.6,29.49,North,360,0.0,0.0,81,0.00,,---,0.00,VWS V14.01,2013-02-04 03:53:00,
2013-02-03 18:58:00,16.3,11.5,29.49,North,360,0.0,2.0,81,0.00,,---,0.00,VWS V14.01,2013-02-04 03:58:00,
2013-02-03 19:03:00,16.2,11.4,29.49,North,360,0.0,0.0,81,0.00,,---,0.00,VWS V14.01,2013-02-04 04:03:00,
2013-02-03 19:07:00,16.2,11.7,29.50,North,360,0.0,0.0,82,0.00,,---,0.00,VWS V14.01,2013-02-04 04:07:00,
2013-02-03 19:12:00,16.5,11.7,29.50,North,360,0.0,1.0,81,0.00,,---,0.00,VWS V14.01,2013-02-04 04:12:00,
2013-02-03 19:17:00,16.4,11.6,29.50,North,360,0.0,1.0,81,0.00,,---,0.00,VWS V14.01,2013-02-04 04:17:00,
2013-02-03 19:22:00,16.2,11.4,29.50,North,360,0.0,1.0,81,0.00,,---,0.00,VWS V14.01,2013-02-04 04:22:00,
2013-02-03 19:27:00,16.1,11.3,29.50,North,360,0.0,1.0,81,0.00,,---,0.00,VWS V14.01,2013-02-04 04:27:00,
2013-02-03 19:32:00,15.8,11.0,29.50,North,360,0.0,0.0,81,0.00,,---,0.00,VWS V14.01,2013-02-04 04:32:00,
2013-02-03 19:37:00,15.8,11.0,29.50,North,360,0.0,0.0,81,0.00,,---,0.00,VWS V14.01,2013-02-04 04:37:00,
2013-02-03 19:42:00,15.6,10.8,29.51,North,360,0.0,0.0,81,0.00,,---,0.00,VWS V14.01,2013-02-04 04:42:00,
2013-02-03 19:47:00,15.5,10.7,29.51,North,360,0.0,0.0,81,0.00,,---,0.00,VWS V14.01,2013-02-04 04:47:00,
2013-02-03 19:52:00,15.3,10.5,29.51,North,360,0.0,1.0,81,0.00,,---,0.00,VWS V14.01,2013-02-04 04:52:00,
2013-02-03 19:57:00,15.2,10.4,29.51,North,360,0.0,1.0,81,0.00,,---,0.00,VWS V14.01,2013-02-04 04:57:00,
2013-02-03 20:00:00,15.1,10.3,29.51,North,360,0.0,1.0,81,0.00,,---,0.00,VWS V14.01,2013-02-04 05:00:00,
2013-02-03 20:03:00,15.0,10.2,29.51,North,360,0.0,0.0,81,0.00,,---,0.00,VWS V14.01,2013-02-04 05:03:00,
2013-02-03 20:08:00,14.8,10.0,29.52,North,360,0.0,0.0,81,0.00,,---,0.00,VWS V14.01,2013-02-04 05:08:00,
2013-02-03 20:13:00,14.8,10.3,29.52,North,360,0.0,1.0,82,0.00,,---,0.00,VWS V14.01,2013-02-04 05:13:00,
2013-02-03 20:18:00,14.7,10.2,29.52,North,360,0.0,1.0,82,0.00,,---,0.00,VWS V14.01,2013-02-04 05:18:00,
2013-02-03 20:23:00,14.6,10.1,29.52,North,360,0.0,1.0,82,0.00,,---,0.00,VWS V14.01,2013-02-04 05:23:00,
2013-02-03 20:28:00,14.5,10.0,29.52,North,360,0.0,1.0,82,0.00,,---,0.00,VWS V14.01,2013-02-04 05:28:00,
2013-02-03 20:33:00,14.4,9.9,29.52,North,360,0.0,0.0,82,0.00,,---,0.00,VWS V14.01,2013-02-04 05:33:00,
2013-02-03 20:38:00,14.3,10.1,29.52,North,360,0.0,0.0,83,0.00,,---,0.00,VWS V14.01,2013-02-04 05:38:00,
2013-02-03 20:43:00,14.3,10.1,29.52,North,360,0.0,0.0,83,0.00,,---,0.00,VWS V14.01,2013-02-04 05:43:00,
2013-02-03 20:48:00,14.3,10.1,29.53,North,360,0.0,0.0,83,0.00,,---,0.00,VWS V14.01,2013-02-04 05:48:00,
2013-02-03 20:53:00,14.3,10.1,29.53,North,360,0.0,0.0,83,0.00,,---,0.00,VWS V14.01,2013-02-04 05:53:00,
2013-02-03 20:58:00,14.4,10.2,29.53,North,360,0.0,0.0,83,0.00,,---,0.00,VWS V14.01,2013-02-04 05:58:00,
2013-02-03 21:03:00,14.2,10.0,29.54,North,360,0.0,0.0,83,0.00,,---,0.00,VWS V14.01,2013-02-04 06:03:00,
2013-02-03 21:08:00,14.0,9.8,29.54,North,360,0.0,0.0,83,0.00,,---,0.00,VWS V14.01,2013-02-04 06:08:00,
2013-02-03 21:13:00,13.8,9.6,29.54,North,360,0.0,0.0,83,0.00,,---,0.00,VWS V14.01,2013-02-04 06:13:00,
2013-02-03 21:18:00,13.7,9.8,29.54,North,360,0.0,0.0,84,0.00,,---,0.00,VWS V14.01,2013-02-04 06:18:00,
2013-02-03 21:23:00,13.7,9.8,29.55,North,360,0.0,0.0,84,0.00,,---,0.00,VWS V14.01,2013-02-04 06:23:00,
2013-02-03 21:28:00,13.7,9.8,29.55,North,360,0.0,0.0,84,0.00,,---,0.00,VWS V14.01,2013-02-04 06:28:00,
2013-02-03 21:33:00,13.6,9.7,29.55,North,360,0.0,0.0,84,0.00,,---,0.00,VWS V14.01,2013-02-04 06:33:00,
2013-02-03 21:38:00,13.6,9.7,29.55,North,360,0.0,0.0,84,0.00,,---,0.00,VWS V14.01,2013-02-04 06:38:00,
2013-02-03 21:43:00,13.6,9.9,29.55,North,360,0.0,0.0,85,0.00,,---,0.00,VWS V14.01,2013-02-04 06:43:00,
2013-02-03 21:48:00,13.6,9.9,29.55,North,360,0.0,0.0,85,0.00,,---,0.00,VWS V14.01,2013-02-04 06:48:00,
2013-02-03 21:53:00,13.7,10.3,29.55,North,360,0.0,0.0,86,0.00,,---,0.00,VWS V14.01,2013-02-04 06:53:00,
2013-02-03 21:58:00,13.9,10.5,29.56,North,360,0.0,0.0,86,0.00,,---,0.00,VWS V14.01,2013-02-04 06:58:00,
2013-02-03 22:03:00,14.0,10.6,29.56,North,360,0.0,0.0,86,0.00,,---,0.00,VWS V14.01,2013-02-04 07:03:00,
2013-02-03 22:08:00,14.2,10.8,29.56,North,360,0.0,0.0,86,0.00,,---,0.00,VWS V14.01,2013-02-04 07:08:00,
2013-02-03 22:13:00,14.3,10.9,29.56,North,360,0.0,0.0,86,0.00,,---,0.00,VWS V14.01,2013-02-04 07:13:00,
2013-02-03 22:18:00,14.4,11.0,29.56,North,360,0.0,0.0,86,0.00,,---,0.00,VWS V14.01,2013-02-04 07:18:00,
2013-02-03 22:23:00,14.5,11.1,29.56,North,360,0.0,2.0,86,0.00,,---,0.00,VWS V14.01,2013-02-04 07:23:00,
2013-02-03 22:28:00,14.8,11.6,29.56,North,360,0.0,2.0,87,0.00,,---,0.00,VWS V14.01,2013-02-04 07:28:00,
2013-02-03 22:33:00,15.1,11.9,29.57,North,360,0.0,1.0,87,0.00,,---,0.00,VWS V14.01,2013-02-04 07:33:00,
2013-02-03 22:38:00,15.3,11.9,29.57,North,360,0.0,2.0,86,0.00,,---,0.00,VWS V14.01,2013-02-04 07:38:00,
2013-02-03 22:43:00,15.3,11.9,29.57,North,360,0.0,2.0,86,0.00,,---,0.00,VWS V14.01,2013-02-04 07:43:00,
2013-02-03 22:48:00,14.9,11.2,29.57,North,360,0.0,2.0,85,0.00,,---,0.00,VWS V14.01,2013-02-04 07:48:00,
2013-02-03 22:53:00,14.3,10.4,29.58,North,360,0.0,2.0,84,0.00,,---,0.00,VWS V14.01,2013-02-04 07:53:00,
2013-02-03 22:58:00,13.6,9.7,29.58,North,360,0.0,2.0,84,0.00,,---,0.00,VWS V14.01,2013-02-04 07:58:00,
2013-02-03 23:02:00,13.1,9.4,29.58,North,360,0.0,0.0,85,0.00,,---,0.00,VWS V14.01,2013-02-04 08:02:00,
2013-02-03 23:07:00,12.8,9.4,29.58,North,360,0.0,0.0,86,0.00,,---,0.00,VWS V14.01,2013-02-04 08:07:00,
2013-02-03 23:12:00,12.7,9.6,29.58,North,360,0.0,0.0,87,0.00,,---,0.00,VWS V14.01,2013-02-04 08:12:00,
2013-02-03 23:17:00,12.5,9.1,29.59,North,360,0.0,0.0,86,0.00,,---,0.00,VWS V14.01,2013-02-04 08:17:00,
2013-02-03 23:22:00,12.3,8.9,29.59,North,360,0.0,0.0,86,0.00,,---,0.00,VWS V14.01,2013-02-04 08:22:00,
2013-02-03 23:27:00,12.2,9.1,29.59,North,360,0.0,0.0,87,0.00,,---,0.00,VWS V14.01,2013-02-04 08:27:00,
2013-02-03 23:32:00,12.1,9.0,29.59,North,360,0.0,0.0,87,0.00,,---,0.00,VWS V14.01,2013-02-04 08:32:00,
2013-02-03 23:37:00,12.1,9.0,29.59,North,360,0.0,0.0,87,0.00,,---,0.00,VWS V14.01,2013-02-04 08:37:00,
2013-02-03 23:42:00,12.1,9.2,29.59,North,360,0.0,1.0,88,0.00,,---,0.00,VWS V14.01,2013-02-04 08:42:00,
2013-02-03 23:47:00,12.2,9.3,29.60,North,360,0.0,3.0,88,0.00,,---,0.00,VWS V14.01,2013-02-04 08:47:00,
2013-02-03 23:52:00,12.3,9.4,29.60,North,360,0.0,3.0,88,0.00,,---,0.00,VWS V14.01,2013-02-04 08:52:00,
2013-02-03 23:57:00,12.4,9.8,29.60,North,360,0.0,3.0,89,0.00,,---,0.00,VWS V14.01,2013-02-04 08:57:00,